Lockhart, Louisiana
Current Conditions -  °F | °C
As of 8:53 AM on Friday 19 Dec 2014 (Local Time) from KELD Reporting Station
Overcast Overcast  
Wind Chill: 40°   Ceiling: 3000
Heat Index: 44°   Visibility: 9mi
Dew Point: 40°   Wind: 8mph
Humidity: 85%   Direction: 30°NNE
Pressure: 30.22"   Gusts: NA
Location:  32.9317°N, 92.5282°W
Report Text: KELD 191453Z AUTO 03007KT 9SM FEW010 OVC030 07/04 A3022 RMK AO2 SLP232 T00670044 51017
Loading
Personal Weather Stations






























Interactive Weather Map New forecast layout! Learn more

10-Day Weather Forecast

Advertisements
Track Severe Weather on mobile